sensor_id;sensor_type;location;lat;lon;timestamp;P1;P2;P0
43280;PMS5003;62175;49.416;8.690;2023-08-07T00:00:57;2;2;
43280;PMS5003;62175;49.416;8.690;2023-08-07T00:03:24;2;2;
43280;PMS5003;62175;49.416;8.690;2023-08-07T00:05:51;2;2;
43280;PMS5003;62175;49.416;8.690;2023-08-07T00:08:18;3;2;
43280;PMS5003;62175;49.416;8.690;2023-08-07T00:10:45;2;2;
43280;PMS5003;62175;49.416;8.690;2023-08-07T00:13:13;4;3;
43280;PMS5003;62175;49.416;8.690;2023-08-07T00:15:40;1;1;
43280;PMS5003;62175;49.416;8.690;2023-08-07T00:18:07;4;4;
43280;PMS5003;62175;49.416;8.690;2023-08-07T00:20:33;2;2;
43280;PMS5003;62175;49.416;8.690;2023-08-07T00:23:01;1;1;
43280;PMS5003;62175;49.416;8.690;2023-08-07T00:25:27;3;2;
43280;PMS5003;62175;49.416;8.690;2023-08-07T00:27:55;1;1;
43280;PMS5003;62175;49.416;8.690;2023-08-07T00:30:22;3;3;
43280;PMS5003;62175;49.416;8.690;2023-08-07T00:32:49;4;4;
43280;PMS5003;62175;49.416;8.690;2023-08-07T00:35:16;3;2;
43280;PMS5003;62175;49.416;8.690;2023-08-07T00:37:43;2;1;
43280;PMS5003;62175;49.416;8.690;2023-08-07T00:40:11;3;3;
43280;PMS5003;62175;49.416;8.690;2023-08-07T00:42:38;2;2;
43280;PMS5003;62175;49.416;8.690;2023-08-07T00:45:06;3;3;
43280;PMS5003;62175;49.416;8.690;2023-08-07T00:47:33;4;4;
43280;PMS5003;62175;49.416;8.690;2023-08-07T00:50:01;5;4;
43280;PMS5003;62175;49.416;8.690;2023-08-07T00:52:30;2;2;
43280;PMS5003;62175;49.416;8.690;2023-08-07T00:54:58;2;2;
43280;PMS5003;62175;49.416;8.690;2023-08-07T00:57:25;3;3;
43280;PMS5003;62175;49.416;8.690;2023-08-07T00:59:53;5;4;
43280;PMS5003;62175;49.416;8.690;2023-08-07T01:02:20;3;3;
43280;PMS5003;62175;49.416;8.690;2023-08-07T01:04:47;4;3;
43280;PMS5003;62175;49.416;8.690;2023-08-07T01:07:14;3;3;
43280;PMS5003;62175;49.416;8.690;2023-08-07T01:09:42;3;3;
43280;PMS5003;62175;49.416;8.690;2023-08-07T01:12:16;3;2;
43280;PMS5003;62175;49.416;8.690;2023-08-07T01:14:49;4;4;
43280;PMS5003;62175;49.416;8.690;2023-08-07T01:17:21;2;2;
43280;PMS5003;62175;49.416;8.690;2023-08-07T01:19:50;4;3;
43280;PMS5003;62175;49.416;8.690;2023-08-07T01:22:18;5;4;
43280;PMS5003;62175;49.416;8.690;2023-08-07T01:24:46;3;3;
43280;PMS5003;62175;49.416;8.690;2023-08-07T01:27:21;3;2;
43280;PMS5003;62175;49.416;8.690;2023-08-07T01:29:59;3;2;
43280;PMS5003;62175;49.416;8.690;2023-08-07T01:35:23;2;2;
43280;PMS5003;62175;49.416;8.690;2023-08-07T01:37:54;3;3;
43280;PMS5003;62175;49.416;8.690;2023-08-07T01:40:23;2;2;
43280;PMS5003;62175;49.416;8.690;2023-08-07T01:42:50;2;2;
43280;PMS5003;62175;49.416;8.690;2023-08-07T01:45:21;4;4;
43280;PMS5003;62175;49.416;8.690;2023-08-07T01:47:50;4;3;
43280;PMS5003;62175;49.416;8.690;2023-08-07T01:50:17;2;2;
43280;PMS5003;62175;49.416;8.690;2023-08-07T01:52:45;3;3;
43280;PMS5003;62175;49.416;8.690;2023-08-07T01:55:12;3;3;
43280;PMS5003;62175;49.416;8.690;2023-08-07T01:57:39;3;2;
43280;PMS5003;62175;49.416;8.690;2023-08-07T02:00:06;3;2;
43280;PMS5003;62175;49.416;8.690;2023-08-07T02:02:33;2;2;
43280;PMS5003;62175;49.416;8.690;2023-08-07T02:05:00;2;2;
43280;PMS5003;62175;49.416;8.690;2023-08-07T02:07:28;3;2;
43280;PMS5003;62175;49.416;8.690;2023-08-07T02:09:55;2;2;
43280;PMS5003;62175;49.416;8.690;2023-08-07T02:12:22;3;2;
43280;PMS5003;62175;49.416;8.690;2023-08-07T02:14:48;3;2;
43280;PMS5003;62175;49.416;8.690;2023-08-07T02:17:15;2;2;
43280;PMS5003;62175;49.416;8.690;2023-08-07T02:19:42;2;2;
43280;PMS5003;62175;49.416;8.690;2023-08-07T02:22:09;4;4;
43280;PMS5003;62175;49.416;8.690;2023-08-07T02:24:36;3;3;
43280;PMS5003;62175;49.416;8.690;2023-08-07T02:27:04;3;2;
43280;PMS5003;62175;49.416;8.690;2023-08-07T02:29:32;3;3;
43280;PMS5003;62175;49.416;8.690;2023-08-07T02:31:59;3;2;
43280;PMS5003;62175;49.416;8.690;2023-08-07T02:34:26;3;3;
43280;PMS5003;62175;49.416;8.690;2023-08-07T02:36:53;1;1;
43280;PMS5003;62175;49.416;8.690;2023-08-07T02:39:20;2;2;
43280;PMS5003;62175;49.416;8.690;2023-08-07T02:41:47;4;3;
43280;PMS5003;62175;49.416;8.690;2023-08-07T02:44:14;3;3;
43280;PMS5003;62175;49.416;8.690;2023-08-07T02:46:49;2;2;
43280;PMS5003;62175;49.416;8.690;2023-08-07T02:49:25;2;2;
43280;PMS5003;62175;49.416;8.690;2023-08-07T02:51:54;4;4;
43280;PMS5003;62175;49.416;8.690;2023-08-07T02:54:25;3;3;
43280;PMS5003;62175;49.416;8.690;2023-08-07T02:56:54;3;2;
43280;PMS5003;62175;49.416;8.690;2023-08-07T02:59:23;2;2;
43280;PMS5003;62175;49.416;8.690;2023-08-07T03:01:49;3;3;
43280;PMS5003;62175;49.416;8.690;2023-08-07T03:04:16;2;2;
43280;PMS5003;62175;49.416;8.690;2023-08-07T03:06:43;2;2;
43280;PMS5003;62175;49.416;8.690;2023-08-07T03:09:10;2;2;
43280;PMS5003;62175;49.416;8.690;2023-08-07T03:11:37;3;3;
43280;PMS5003;62175;49.416;8.690;2023-08-07T03:14:04;3;3;
43280;PMS5003;62175;49.416;8.690;2023-08-07T03:16:31;4;4;
43280;PMS5003;62175;49.416;8.690;2023-08-07T03:18:58;3;3;
43280;PMS5003;62175;49.416;8.690;2023-08-07T03:21:26;4;3;
43280;PMS5003;62175;49.416;8.690;2023-08-07T03:23:53;2;2;
43280;PMS5003;62175;49.416;8.690;2023-08-07T03:26:20;4;3;
43280;PMS5003;62175;49.416;8.690;2023-08-07T03:28:47;5;5;
43280;PMS5003;62175;49.416;8.690;2023-08-07T03:31:15;4;3;
43280;PMS5003;62175;49.416;8.690;2023-08-07T03:33:42;2;2;
43280;PMS5003;62175;49.416;8.690;2023-08-07T03:36:09;3;2;
43280;PMS5003;62175;49.416;8.690;2023-08-07T03:38:47;2;2;
43280;PMS5003;62175;49.416;8.690;2023-08-07T03:41:20;2;2;
43280;PMS5003;62175;49.416;8.690;2023-08-07T03:43:52;2;2;
43280;PMS5003;62175;49.416;8.690;2023-08-07T03:46:23;5;4;
43280;PMS5003;62175;49.416;8.690;2023-08-07T03:48:54;3;3;
43280;PMS5003;62175;49.416;8.690;2023-08-07T03:51:24;4;4;
43280;PMS5003;62175;49.416;8.690;2023-08-07T03:53:57;2;0;
43280;PMS5003;62175;49.416;8.690;2023-08-07T03:56:29;3;3;
43280;PMS5003;62175;49.416;8.690;2023-08-07T03:58:57;3;3;
43280;PMS5003;62175;49.416;8.690;2023-08-07T04:01:27;1;1;
43280;PMS5003;62175;49.416;8.690;2023-08-07T04:03:59;3;3;
43280;PMS5003;62175;49.416;8.690;2023-08-07T04:06:30;3;3;
43280;PMS5003;62175;49.416;8.690;2023-08-07T04:08:59;3;2;
43280;PMS5003;62175;49.416;8.690;2023-08-07T04:11:27;4;3;
43280;PMS5003;62175;49.416;8.690;2023-08-07T04:13:56;3;2;
43280;PMS5003;62175;49.416;8.690;2023-08-07T04:16:26;3;3;
43280;PMS5003;62175;49.416;8.690;2023-08-07T04:18:57;4;3;
43280;PMS5003;62175;49.416;8.690;2023-08-07T04:21:30;4;4;
43280;PMS5003;62175;49.416;8.690;2023-08-07T04:23:58;4;3;
43280;PMS5003;62175;49.416;8.690;2023-08-07T04:26:29;4;2;
43280;PMS5003;62175;49.416;8.690;2023-08-07T04:29:03;3;3;
43280;PMS5003;62175;49.416;8.690;2023-08-07T04:31:33;3;2;
43280;PMS5003;62175;49.416;8.690;2023-08-07T04:34:02;4;3;
43280;PMS5003;62175;49.416;8.690;2023-08-07T04:36:33;3;3;
43280;PMS5003;62175;49.416;8.690;2023-08-07T04:39:37;3;3;
43280;PMS5003;62175;49.416;8.690;2023-08-07T04:42:07;3;2;
43280;PMS5003;62175;49.416;8.690;2023-08-07T04:44:36;3;3;
43280;PMS5003;62175;49.416;8.690;2023-08-07T04:47:07;3;3;
43280;PMS5003;62175;49.416;8.690;2023-08-07T04:49:35;3;3;
43280;PMS5003;62175;49.416;8.690;2023-08-07T04:52:06;3;3;
43280;PMS5003;62175;49.416;8.690;2023-08-07T04:54:36;5;4;
43280;PMS5003;62175;49.416;8.690;2023-08-07T04:57:06;2;2;
43280;PMS5003;62175;49.416;8.690;2023-08-07T04:59:35;3;3;
43280;PMS5003;62175;49.416;8.690;2023-08-07T05:02:07;4;4;
43280;PMS5003;62175;49.416;8.690;2023-08-07T05:04:34;3;3;
43280;PMS5003;62175;49.416;8.690;2023-08-07T05:07:04;2;2;
43280;PMS5003;62175;49.416;8.690;2023-08-07T05:09:33;5;4;
43280;PMS5003;62175;49.416;8.690;2023-08-07T05:12:02;5;4;
43280;PMS5003;62175;49.416;8.690;2023-08-07T05:14:39;3;3;
43280;PMS5003;62175;49.416;8.690;2023-08-07T05:17:13;3;3;
43280;PMS5003;62175;49.416;8.690;2023-08-07T05:20:49;4;4;
43280;PMS5003;62175;49.416;8.690;2023-08-07T05:26:45;3;3;
43280;PMS5003;62175;49.416;8.690;2023-08-07T05:29:26;4;3;
43280;PMS5003;62175;49.416;8.690;2023-08-07T05:32:02;2;2;
43280;PMS5003;62175;49.416;8.690;2023-08-07T05:34:38;2;2;
43280;PMS5003;62175;49.416;8.690;2023-08-07T05:37:08;3;3;
43280;PMS5003;62175;49.416;8.690;2023-08-07T05:39:45;4;4;
43280;PMS5003;62175;49.416;8.690;2023-08-07T05:42:17;4;4;
43280;PMS5003;62175;49.416;8.690;2023-08-07T05:45:22;3;3;
43280;PMS5003;62175;49.416;8.690;2023-08-07T05:47:59;4;3;
43280;PMS5003;62175;49.416;8.690;2023-08-07T05:50:29;3;2;
43280;PMS5003;62175;49.416;8.690;2023-08-07T05:52:57;5;5;
43280;PMS5003;62175;49.416;8.690;2023-08-07T05:55:26;4;4;
43280;PMS5003;62175;49.416;8.690;2023-08-07T05:58:00;4;3;
43280;PMS5003;62175;49.416;8.690;2023-08-07T06:00:32;6;4;
43280;PMS5003;62175;49.416;8.690;2023-08-07T06:03:02;5;5;
43280;PMS5003;62175;49.416;8.690;2023-08-07T06:05:30;5;5;
43280;PMS5003;62175;49.416;8.690;2023-08-07T06:07:58;4;4;
43280;PMS5003;62175;49.416;8.690;2023-08-07T06:10:28;4;3;
43280;PMS5003;62175;49.416;8.690;2023-08-07T06:12:58;4;4;
43280;PMS5003;62175;49.416;8.690;2023-08-07T06:15:34;3;3;
43280;PMS5003;62175;49.416;8.690;2023-08-07T06:18:04;4;4;
43280;PMS5003;62175;49.416;8.690;2023-08-07T06:21:09;5;4;
43280;PMS5003;62175;49.416;8.690;2023-08-07T06:23:40;5;4;
43280;PMS5003;62175;49.416;8.690;2023-08-07T06:26:11;3;3;
43280;PMS5003;62175;49.416;8.690;2023-08-07T06:29:13;2;2;
43280;PMS5003;62175;49.416;8.690;2023-08-07T06:31:55;3;2;
43280;PMS5003;62175;49.416;8.690;2023-08-07T06:34:25;3;3;
43280;PMS5003;62175;49.416;8.690;2023-08-07T06:36:57;2;2;
43280;PMS5003;62175;49.416;8.690;2023-08-07T06:39:29;4;4;
43280;PMS5003;62175;49.416;8.690;2023-08-07T06:42:00;3;3;
43280;PMS5003;62175;49.416;8.690;2023-08-07T06:44:33;4;4;
43280;PMS5003;62175;49.416;8.690;2023-08-07T06:47:12;4;3;
43280;PMS5003;62175;49.416;8.690;2023-08-07T06:49:56;4;3;
43280;PMS5003;62175;49.416;8.690;2023-08-07T06:52:44;3;3;
43280;PMS5003;62175;49.416;8.690;2023-08-07T06:55:19;4;3;
43280;PMS5003;62175;49.416;8.690;2023-08-07T06:57:59;3;3;
43280;PMS5003;62175;49.416;8.690;2023-08-07T07:00:33;5;3;
43280;PMS5003;62175;49.416;8.690;2023-08-07T07:03:08;4;3;
43280;PMS5003;62175;49.416;8.690;2023-08-07T07:05:41;2;1;
43280;PMS5003;62175;49.416;8.690;2023-08-07T07:08:09;3;3;
43280;PMS5003;62175;49.416;8.690;2023-08-07T07:10:42;4;3;
43280;PMS5003;62175;49.416;8.690;2023-08-07T07:13:11;3;3;
43280;PMS5003;62175;49.416;8.690;2023-08-07T07:15:41;4;4;
43280;PMS5003;62175;49.416;8.690;2023-08-07T07:18:11;3;3;
43280;PMS5003;62175;49.416;8.690;2023-08-07T07:20:41;4;2;
43280;PMS5003;62175;49.416;8.690;2023-08-07T07:23:16;4;4;
43280;PMS5003;62175;49.416;8.690;2023-08-07T07:25:46;4;3;
43280;PMS5003;62175;49.416;8.690;2023-08-07T07:28:16;3;2;
43280;PMS5003;62175;49.416;8.690;2023-08-07T07:30:48;3;3;
43280;PMS5003;62175;49.416;8.690;2023-08-07T07:33:23;5;3;
43280;PMS5003;62175;49.416;8.690;2023-08-07T07:35:55;3;3;
43280;PMS5003;62175;49.416;8.690;2023-08-07T07:38:23;4;4;
43280;PMS5003;62175;49.416;8.690;2023-08-07T07:40:55;3;2;
43280;PMS5003;62175;49.416;8.690;2023-08-07T07:43:23;5;4;
43280;PMS5003;62175;49.416;8.690;2023-08-07T07:45:51;4;4;
43280;PMS5003;62175;49.416;8.690;2023-08-07T07:48:19;3;2;
43280;PMS5003;62175;49.416;8.690;2023-08-07T07:50:45;4;4;
43280;PMS5003;62175;49.416;8.690;2023-08-07T07:55:27;4;3;
43280;PMS5003;62175;49.416;8.690;2023-08-07T07:57:55;5;4;
43280;PMS5003;62175;49.416;8.690;2023-08-07T08:00:24;5;3;
43280;PMS5003;62175;49.416;8.690;2023-08-07T08:03:11;3;3;
43280;PMS5003;62175;49.416;8.690;2023-08-07T08:05:39;7;4;
43280;PMS5003;62175;49.416;8.690;2023-08-07T08:08:08;8;7;
43280;PMS5003;62175;49.416;8.690;2023-08-07T08:10:35;6;4;
43280;PMS5003;62175;49.416;8.690;2023-08-07T08:13:02;3;3;
43280;PMS5003;62175;49.416;8.690;2023-08-07T08:15:29;3;3;
43280;PMS5003;62175;49.416;8.690;2023-08-07T08:17:57;5;4;
43280;PMS5003;62175;49.416;8.690;2023-08-07T08:20:25;1;1;
43280;PMS5003;62175;49.416;8.690;2023-08-07T08:26:56;2;2;
43280;PMS5003;62175;49.416;8.690;2023-08-07T08:29:23;4;4;
43280;PMS5003;62175;49.416;8.690;2023-08-07T08:31:54;3;3;
43280;PMS5003;62175;49.416;8.690;2023-08-07T08:34:32;3;3;
43280;PMS5003;62175;49.416;8.690;2023-08-07T08:37:01;4;4;
43280;PMS5003;62175;49.416;8.690;2023-08-07T08:39:31;6;5;
43280;PMS5003;62175;49.416;8.690;2023-08-07T08:42:05;4;4;
43280;PMS5003;62175;49.416;8.690;2023-08-07T08:44:48;4;3;
43280;PMS5003;62175;49.416;8.690;2023-08-07T08:47:30;6;5;
43280;PMS5003;62175;49.416;8.690;2023-08-07T08:50:02;6;4;
43280;PMS5003;62175;49.416;8.690;2023-08-07T08:53:47;4;4;
43280;PMS5003;62175;49.416;8.690;2023-08-07T08:56:15;4;4;
43280;PMS5003;62175;49.416;8.690;2023-08-07T08:58:46;5;4;
43280;PMS5003;62175;49.416;8.690;2023-08-07T09:01:16;3;3;
43280;PMS5003;62175;49.416;8.690;2023-08-07T09:03:47;3;3;
43280;PMS5003;62175;49.416;8.690;2023-08-07T09:06:14;4;3;
43280;PMS5003;62175;49.416;8.690;2023-08-07T09:08:42;5;4;
43280;PMS5003;62175;49.416;8.690;2023-08-07T09:11:10;3;3;
43280;PMS5003;62175;49.416;8.690;2023-08-07T09:13:39;4;3;
43280;PMS5003;62175;49.416;8.690;2023-08-07T09:16:09;4;3;
43280;PMS5003;62175;49.416;8.690;2023-08-07T09:18:38;2;2;
43280;PMS5003;62175;49.416;8.690;2023-08-07T09:21:05;3;3;
43280;PMS5003;62175;49.416;8.690;2023-08-07T09:23:33;2;2;
43280;PMS5003;62175;49.416;8.690;2023-08-07T09:26:00;2;2;
43280;PMS5003;62175;49.416;8.690;2023-08-07T09:28:29;3;3;
43280;PMS5003;62175;49.416;8.690;2023-08-07T09:30:59;3;3;
43280;PMS5003;62175;49.416;8.690;2023-08-07T09:33:26;3;3;
43280;PMS5003;62175;49.416;8.690;2023-08-07T09:35:57;4;4;
43280;PMS5003;62175;49.416;8.690;2023-08-07T09:38:27;3;3;
43280;PMS5003;62175;49.416;8.690;2023-08-07T09:40:57;2;2;
43280;PMS5003;62175;49.416;8.690;2023-08-07T09:43:24;5;4;
43280;PMS5003;62175;49.416;8.690;2023-08-07T09:45:51;4;4;
43280;PMS5003;62175;49.416;8.690;2023-08-07T09:48:22;3;3;
43280;PMS5003;62175;49.416;8.690;2023-08-07T09:50:51;3;2;
43280;PMS5003;62175;49.416;8.690;2023-08-07T09:53:25;4;4;
43280;PMS5003;62175;49.416;8.690;2023-08-07T09:55:52;4;3;
43280;PMS5003;62175;49.416;8.690;2023-08-07T09:58:19;3;3;
43280;PMS5003;62175;49.416;8.690;2023-08-07T10:00:47;4;4;
43280;PMS5003;62175;49.416;8.690;2023-08-07T10:03:14;3;3;
43280;PMS5003;62175;49.416;8.690;2023-08-07T10:05:41;4;4;
43280;PMS5003;62175;49.416;8.690;2023-08-07T10:08:10;6;5;
43280;PMS5003;62175;49.416;8.690;2023-08-07T10:10:38;3;3;
43280;PMS5003;62175;49.416;8.690;2023-08-07T10:13:06;2;2;
43280;PMS5003;62175;49.416;8.690;2023-08-07T10:15:33;6;5;
43280;PMS5003;62175;49.416;8.690;2023-08-07T10:18:00;5;4;
43280;PMS5003;62175;49.416;8.690;2023-08-07T10:20:28;4;3;
43280;PMS5003;62175;49.416;8.690;2023-08-07T10:22:57;3;3;
43280;PMS5003;62175;49.416;8.690;2023-08-07T10:25:29;5;4;
43280;PMS5003;62175;49.416;8.690;2023-08-07T10:27:57;4;3;
43280;PMS5003;62175;49.416;8.690;2023-08-07T10:30:26;4;4;
43280;PMS5003;62175;49.416;8.690;2023-08-07T10:32:55;4;4;
43280;PMS5003;62175;49.416;8.690;2023-08-07T10:35:25;5;5;
43280;PMS5003;62175;49.416;8.690;2023-08-07T10:37:55;7;5;
43280;PMS5003;62175;49.416;8.690;2023-08-07T10:40:32;3;3;
43280;PMS5003;62175;49.416;8.690;2023-08-07T10:43:01;5;4;
43280;PMS5003;62175;49.416;8.690;2023-08-07T10:45:39;3;3;
43280;PMS5003;62175;49.416;8.690;2023-08-07T10:48:06;3;3;
43280;PMS5003;62175;49.416;8.690;2023-08-07T10:50:34;3;3;
43280;PMS5003;62175;49.416;8.690;2023-08-07T10:53:12;5;4;
43280;PMS5003;62175;49.416;8.690;2023-08-07T10:55:46;4;4;
43280;PMS5003;62175;49.416;8.690;2023-08-07T10:58:22;4;4;
43280;PMS5003;62175;49.416;8.690;2023-08-07T11:00:49;3;3;
43280;PMS5003;62175;49.416;8.690;2023-08-07T11:03:20;3;3;
43280;PMS5003;62175;49.416;8.690;2023-08-07T11:05:52;4;4;
43280;PMS5003;62175;49.416;8.690;2023-08-07T11:08:21;4;4;
43280;PMS5003;62175;49.416;8.690;2023-08-07T11:10:49;4;3;
43280;PMS5003;62175;49.416;8.690;2023-08-07T11:13:17;4;4;
43280;PMS5003;62175;49.416;8.690;2023-08-07T11:15:45;6;5;
43280;PMS5003;62175;49.416;8.690;2023-08-07T11:18:13;4;4;
43280;PMS5003;62175;49.416;8.690;2023-08-07T11:20:41;5;5;
43280;PMS5003;62175;49.416;8.690;2023-08-07T11:23:08;6;4;
43280;PMS5003;62175;49.416;8.690;2023-08-07T11:25:35;5;5;
43280;PMS5003;62175;49.416;8.690;2023-08-07T11:28:03;5;5;
43280;PMS5003;62175;49.416;8.690;2023-08-07T11:30:30;4;2;
43280;PMS5003;62175;49.416;8.690;2023-08-07T11:32:57;6;5;
43280;PMS5003;62175;49.416;8.690;2023-08-07T11:35:24;5;4;
43280;PMS5003;62175;49.416;8.690;2023-08-07T11:37:51;4;4;
43280;PMS5003;62175;49.416;8.690;2023-08-07T11:40:18;5;4;
43280;PMS5003;62175;49.416;8.690;2023-08-07T11:42:45;4;4;
43280;PMS5003;62175;49.416;8.690;2023-08-07T11:45:12;4;4;
43280;PMS5003;62175;49.416;8.690;2023-08-07T11:47:39;3;3;
43280;PMS5003;62175;49.416;8.690;2023-08-07T11:50:06;4;4;
43280;PMS5003;62175;49.416;8.690;2023-08-07T11:52:35;6;5;
43280;PMS5003;62175;49.416;8.690;2023-08-07T11:55:03;5;4;
43280;PMS5003;62175;49.416;8.690;2023-08-07T11:57:29;5;4;
43280;PMS5003;62175;49.416;8.690;2023-08-07T11:59:58;9;7;
43280;PMS5003;62175;49.416;8.690;2023-08-07T12:02:25;7;6;
43280;PMS5003;62175;49.416;8.690;2023-08-07T12:04:57;5;5;
43280;PMS5003;62175;49.416;8.690;2023-08-07T12:07:24;6;4;
43280;PMS5003;62175;49.416;8.690;2023-08-07T12:09:52;6;4;
43280;PMS5003;62175;49.416;8.690;2023-08-07T12:12:19;4;3;
43280;PMS5003;62175;49.416;8.690;2023-08-07T12:14:46;4;3;
43280;PMS5003;62175;49.416;8.690;2023-08-07T12:17:19;4;4;
43280;PMS5003;62175;49.416;8.690;2023-08-07T12:19:49;5;4;
43280;PMS5003;62175;49.416;8.690;2023-08-07T12:22:18;4;3;
43280;PMS5003;62175;49.416;8.690;2023-08-07T12:24:45;7;3;
43280;PMS5003;62175;49.416;8.690;2023-08-07T12:27:13;3;3;
43280;PMS5003;62175;49.416;8.690;2023-08-07T12:29:39;5;5;
43280;PMS5003;62175;49.416;8.690;2023-08-07T12:32:07;6;5;
43280;PMS5003;62175;49.416;8.690;2023-08-07T12:34:34;5;4;
43280;PMS5003;62175;49.416;8.690;2023-08-07T12:37:01;7;5;
43280;PMS5003;62175;49.416;8.690;2023-08-07T12:39:28;12;9;
43280;PMS5003;62175;49.416;8.690;2023-08-07T12:41:56;4;3;
43280;PMS5003;62175;49.416;8.690;2023-08-07T12:44:23;4;4;
43280;PMS5003;62175;49.416;8.690;2023-08-07T12:46:50;4;3;
43280;PMS5003;62175;49.416;8.690;2023-08-07T12:49:18;3;2;
43280;PMS5003;62175;49.416;8.690;2023-08-07T12:51:45;4;4;
43280;PMS5003;62175;49.416;8.690;2023-08-07T12:54:20;4;4;
43280;PMS5003;62175;49.416;8.690;2023-08-07T12:56:58;4;4;
43280;PMS5003;62175;49.416;8.690;2023-08-07T12:59:25;7;6;
43280;PMS5003;62175;49.416;8.690;2023-08-07T13:01:52;8;6;
43280;PMS5003;62175;49.416;8.690;2023-08-07T13:04:22;10;6;
43280;PMS5003;62175;49.416;8.690;2023-08-07T13:06:50;26;22;
43280;PMS5003;62175;49.416;8.690;2023-08-07T13:09:17;27;22;
43280;PMS5003;62175;49.416;8.690;2023-08-07T13:11:44;17;11;
43280;PMS5003;62175;49.416;8.690;2023-08-07T13:14:11;13;11;
43280;PMS5003;62175;49.416;8.690;2023-08-07T13:16:38;9;8;
43280;PMS5003;62175;49.416;8.690;2023-08-07T13:19:06;5;5;
43280;PMS5003;62175;49.416;8.690;2023-08-07T13:21:33;7;5;
43280;PMS5003;62175;49.416;8.690;2023-08-07T13:24:00;14;11;
43280;PMS5003;62175;49.416;8.690;2023-08-07T13:26:28;15;11;
43280;PMS5003;62175;49.416;8.690;2023-08-07T13:28:55;9;7;
43280;PMS5003;62175;49.416;8.690;2023-08-07T13:31:21;7;6;
43280;PMS5003;62175;49.416;8.690;2023-08-07T13:33:49;7;6;
43280;PMS5003;62175;49.416;8.690;2023-08-07T13:36:16;5;5;
43280;PMS5003;62175;49.416;8.690;2023-08-07T13:38:43;11;8;
43280;PMS5003;62175;49.416;8.690;2023-08-07T13:41:10;6;5;
43280;PMS5003;62175;49.416;8.690;2023-08-07T13:43:38;5;5;
43280;PMS5003;62175;49.416;8.690;2023-08-07T13:46:05;5;4;
43280;PMS5003;62175;49.416;8.690;2023-08-07T13:48:32;4;3;
43280;PMS5003;62175;49.416;8.690;2023-08-07T13:50:59;3;3;
43280;PMS5003;62175;49.416;8.690;2023-08-07T13:53:26;7;7;
43280;PMS5003;62175;49.416;8.690;2023-08-07T13:55:53;4;4;
43280;PMS5003;62175;49.416;8.690;2023-08-07T13:58:20;4;4;
43280;PMS5003;62175;49.416;8.690;2023-08-07T14:00:47;4;3;
43280;PMS5003;62175;49.416;8.690;2023-08-07T14:03:14;4;4;
43280;PMS5003;62175;49.416;8.690;2023-08-07T14:05:41;4;4;
43280;PMS5003;62175;49.416;8.690;2023-08-07T14:08:08;3;3;
43280;PMS5003;62175;49.416;8.690;2023-08-07T14:10:35;5;4;
43280;PMS5003;62175;49.416;8.690;2023-08-07T14:13:02;5;4;
43280;PMS5003;62175;49.416;8.690;2023-08-07T14:15:29;6;5;
43280;PMS5003;62175;49.416;8.690;2023-08-07T14:17:56;3;3;
43280;PMS5003;62175;49.416;8.690;2023-08-07T14:20:23;5;3;
43280;PMS5003;62175;49.416;8.690;2023-08-07T14:22:50;6;6;
43280;PMS5003;62175;49.416;8.690;2023-08-07T14:25:17;5;5;
43280;PMS5003;62175;49.416;8.690;2023-08-07T14:27:44;6;5;
43280;PMS5003;62175;49.416;8.690;2023-08-07T14:30:11;4;3;
43280;PMS5003;62175;49.416;8.690;2023-08-07T14:32:39;3;3;
43280;PMS5003;62175;49.416;8.690;2023-08-07T14:35:06;3;3;
43280;PMS5003;62175;49.416;8.690;2023-08-07T14:37:33;4;4;
43280;PMS5003;62175;49.416;8.690;2023-08-07T14:40:01;4;3;
43280;PMS5003;62175;49.416;8.690;2023-08-07T14:42:28;4;4;
43280;PMS5003;62175;49.416;8.690;2023-08-07T14:44:59;5;5;
43280;PMS5003;62175;49.416;8.690;2023-08-07T14:47:26;3;2;
43280;PMS5003;62175;49.416;8.690;2023-08-07T14:49:53;3;3;
43280;PMS5003;62175;49.416;8.690;2023-08-07T14:52:24;3;3;
43280;PMS5003;62175;49.416;8.690;2023-08-07T14:54:52;4;4;
43280;PMS5003;62175;49.416;8.690;2023-08-07T14:57:20;2;2;
43280;PMS5003;62175;49.416;8.690;2023-08-07T14:59:46;7;5;
43280;PMS5003;62175;49.416;8.690;2023-08-07T15:02:13;3;3;
43280;PMS5003;62175;49.416;8.690;2023-08-07T15:04:40;4;3;
43280;PMS5003;62175;49.416;8.690;2023-08-07T15:07:07;3;3;
43280;PMS5003;62175;49.416;8.690;2023-08-07T15:09:34;3;3;
43280;PMS5003;62175;49.416;8.690;2023-08-07T15:12:02;3;2;
43280;PMS5003;62175;49.416;8.690;2023-08-07T15:14:30;3;3;
43280;PMS5003;62175;49.416;8.690;2023-08-07T15:16:58;3;3;
43280;PMS5003;62175;49.416;8.690;2023-08-07T15:19:26;2;2;
43280;PMS5003;62175;49.416;8.690;2023-08-07T15:21:53;5;3;
43280;PMS5003;62175;49.416;8.690;2023-08-07T15:24:20;3;3;
43280;PMS5003;62175;49.416;8.690;2023-08-07T15:26:47;4;3;
43280;PMS5003;62175;49.416;8.690;2023-08-07T15:29:14;3;3;
43280;PMS5003;62175;49.416;8.690;2023-08-07T15:31:41;2;2;
43280;PMS5003;62175;49.416;8.690;2023-08-07T15:34:08;3;2;
43280;PMS5003;62175;49.416;8.690;2023-08-07T15:36:35;4;4;
43280;PMS5003;62175;49.416;8.690;2023-08-07T15:39:02;2;2;
43280;PMS5003;62175;49.416;8.690;2023-08-07T15:41:29;3;3;
43280;PMS5003;62175;49.416;8.690;2023-08-07T15:43:55;2;2;
43280;PMS5003;62175;49.416;8.690;2023-08-07T15:46:22;3;3;
43280;PMS5003;62175;49.416;8.690;2023-08-07T15:48:49;2;2;
43280;PMS5003;62175;49.416;8.690;2023-08-07T15:51:16;3;3;
43280;PMS5003;62175;49.416;8.690;2023-08-07T15:53:43;3;2;
43280;PMS5003;62175;49.416;8.690;2023-08-07T15:56:10;3;3;
43280;PMS5003;62175;49.416;8.690;2023-08-07T15:58:38;3;3;
43280;PMS5003;62175;49.416;8.690;2023-08-07T16:01:06;2;2;
43280;PMS5003;62175;49.416;8.690;2023-08-07T16:03:34;5;3;
43280;PMS5003;62175;49.416;8.690;2023-08-07T16:06:00;3;3;
43280;PMS5003;62175;49.416;8.690;2023-08-07T16:08:27;4;3;
43280;PMS5003;62175;49.416;8.690;2023-08-07T16:10:55;3;3;
43280;PMS5003;62175;49.416;8.690;2023-08-07T16:13:22;3;3;
43280;PMS5003;62175;49.416;8.690;2023-08-07T16:15:49;3;3;
43280;PMS5003;62175;49.416;8.690;2023-08-07T16:18:16;4;3;
43280;PMS5003;62175;49.416;8.690;2023-08-07T16:20:44;3;3;
43280;PMS5003;62175;49.416;8.690;2023-08-07T16:23:11;2;2;
43280;PMS5003;62175;49.416;8.690;2023-08-07T16:25:38;3;3;
43280;PMS5003;62175;49.416;8.690;2023-08-07T16:28:06;4;4;
43280;PMS5003;62175;49.416;8.690;2023-08-07T16:30:34;4;4;
43280;PMS5003;62175;49.416;8.690;2023-08-07T16:33:03;2;1;
43280;PMS5003;62175;49.416;8.690;2023-08-07T16:35:31;4;3;
43280;PMS5003;62175;49.416;8.690;2023-08-07T16:37:59;4;4;
43280;PMS5003;62175;49.416;8.690;2023-08-07T16:42:56;2;2;
43280;PMS5003;62175;49.416;8.690;2023-08-07T16:45:47;2;2;
43280;PMS5003;62175;49.416;8.690;2023-08-07T22:23:23;5;5;
43280;PMS5003;62175;49.416;8.690;2023-08-07T22:25:56;4;4;
43280;PMS5003;62175;49.416;8.690;2023-08-07T22:28:23;5;5;
43280;PMS5003;62175;49.416;8.690;2023-08-07T22:30:51;4;4;
43280;PMS5003;62175;49.416;8.690;2023-08-07T22:33:19;5;5;
43280;PMS5003;62175;49.416;8.690;2023-08-07T22:35:49;5;5;
43280;PMS5003;62175;49.416;8.690;2023-08-07T22:38:20;4;4;
43280;PMS5003;62175;49.416;8.690;2023-08-07T22:40:49;4;4;
43280;PMS5003;62175;49.416;8.690;2023-08-07T22:43:18;5;5;
43280;PMS5003;62175;49.416;8.690;2023-08-07T22:45:48;2;2;
43280;PMS5003;62175;49.416;8.690;2023-08-07T22:48:19;5;5;
43280;PMS5003;62175;49.416;8.690;2023-08-07T22:51:22;5;5;
43280;PMS5003;62175;49.416;8.690;2023-08-07T22:53:50;4;4;
43280;PMS5003;62175;49.416;8.690;2023-08-07T22:56:19;5;5;
43280;PMS5003;62175;49.416;8.690;2023-08-07T22:58:48;5;5;